sensor_id;sensor_type;location;lat;lon;timestamp;P1;durP1;ratioP1;P2;durP2;ratioP2
84866;SDS011;75123;51.788;4.654;2024-03-23T00:53:26;5.44;;;4.27;;
84866;SDS011;75123;51.788;4.654;2024-03-23T00:55:52;5.21;;;4.20;;
84866;SDS011;75123;51.788;4.654;2024-03-23T00:58:17;5.97;;;4.83;;
84866;SDS011;75123;51.788;4.654;2024-03-23T01:00:43;5.85;;;4.79;;
84866;SDS011;75123;51.788;4.654;2024-03-23T01:03:08;5.24;;;4.29;;
84866;SDS011;75123;51.788;4.654;2024-03-23T01:05:34;5.77;;;4.65;;
84866;SDS011;75123;51.788;4.654;2024-03-23T01:07:59;5.80;;;4.79;;
84866;SDS011;75123;51.788;4.654;2024-03-23T01:10:25;5.32;;;4.54;;
84866;SDS011;75123;51.788;4.654;2024-03-23T01:12:50;5.65;;;4.84;;
84866;SDS011;75123;51.788;4.654;2024-03-23T01:15:16;5.72;;;4.99;;
84866;SDS011;75123;51.788;4.654;2024-03-23T01:17:41;6.29;;;5.65;;
84866;SDS011;75123;51.788;4.654;2024-03-23T01:20:07;6.96;;;6.30;;
84866;SDS011;75123;51.788;4.654;2024-03-23T01:22:32;7.47;;;6.90;;
84866;SDS011;75123;51.788;4.654;2024-03-23T01:24:58;7.00;;;6.56;;
84866;SDS011;75123;51.788;4.654;2024-03-23T01:27:23;6.79;;;6.31;;
84866;SDS011;75123;51.788;4.654;2024-03-23T01:29:49;7.24;;;6.52;;
84866;SDS011;75123;51.788;4.654;2024-03-23T01:32:16;7.81;;;7.23;;
84866;SDS011;75123;51.788;4.654;2024-03-23T01:34:41;7.70;;;7.15;;
84866;SDS011;75123;51.788;4.654;2024-03-23T01:37:07;7.96;;;7.41;;
84866;SDS011;75123;51.788;4.654;2024-03-23T01:39:32;8.08;;;7.63;;
84866;SDS011;75123;51.788;4.654;2024-03-23T01:41:58;8.40;;;8.02;;
84866;SDS011;75123;51.788;4.654;2024-03-23T01:44:23;8.01;;;7.67;;
84866;SDS011;75123;51.788;4.654;2024-03-23T01:46:48;8.58;;;8.24;;
84866;SDS011;75123;51.788;4.654;2024-03-23T01:49:14;8.22;;;7.82;;
84866;SDS011;75123;51.788;4.654;2024-03-23T01:51:40;8.88;;;8.48;;
84866;SDS011;75123;51.788;4.654;2024-03-23T01:54:06;8.79;;;8.38;;
84866;SDS011;75123;51.788;4.654;2024-03-23T01:56:32;8.73;;;8.28;;
84866;SDS011;75123;51.788;4.654;2024-03-23T01:59:05;8.75;;;8.33;;
84866;SDS011;75123;51.788;4.654;2024-03-23T02:01:31;8.65;;;8.25;;
84866;SDS011;75123;51.788;4.654;2024-03-23T02:03:58;8.67;;;8.42;;
84866;SDS011;75123;51.788;4.654;2024-03-23T02:06:24;8.55;;;8.27;;
84866;SDS011;75123;51.788;4.654;2024-03-23T02:08:49;8.54;;;8.36;;
84866;SDS011;75123;51.788;4.654;2024-03-23T02:11:15;7.58;;;7.51;;
84866;SDS011;75123;51.788;4.654;2024-03-23T02:13:41;7.76;;;7.67;;
84866;SDS011;75123;51.788;4.654;2024-03-23T02:16:06;8.37;;;8.05;;
84866;SDS011;75123;51.788;4.654;2024-03-23T02:18:32;8.69;;;8.35;;
84866;SDS011;75123;51.788;4.654;2024-03-23T02:20:58;8.61;;;8.23;;
84866;SDS011;75123;51.788;4.654;2024-03-23T02:23:23;8.58;;;8.39;;
84866;SDS011;75123;51.788;4.654;2024-03-23T02:25:50;8.03;;;7.90;;
84866;SDS011;75123;51.788;4.654;2024-03-23T02:28:16;8.60;;;8.27;;
84866;SDS011;75123;51.788;4.654;2024-03-23T02:30:42;7.47;;;7.09;;
84866;SDS011;75123;51.788;4.654;2024-03-23T02:33:08;7.79;;;7.37;;
84866;SDS011;75123;51.788;4.654;2024-03-23T02:35:33;7.39;;;7.03;;
84866;SDS011;75123;51.788;4.654;2024-03-23T02:37:59;7.65;;;7.18;;
84866;SDS011;75123;51.788;4.654;2024-03-23T02:40:24;8.07;;;7.50;;
84866;SDS011;75123;51.788;4.654;2024-03-23T02:42:50;8.36;;;7.72;;
84866;SDS011;75123;51.788;4.654;2024-03-23T02:45:16;7.30;;;6.83;;
84866;SDS011;75123;51.788;4.654;2024-03-23T02:47:42;7.25;;;6.87;;
84866;SDS011;75123;51.788;4.654;2024-03-23T02:50:08;6.87;;;6.54;;
84866;SDS011;75123;51.788;4.654;2024-03-23T02:52:34;7.16;;;6.77;;
84866;SDS011;75123;51.788;4.654;2024-03-23T02:55:00;7.64;;;7.27;;
84866;SDS011;75123;51.788;4.654;2024-03-23T02:57:27;7.00;;;6.65;;
84866;SDS011;75123;51.788;4.654;2024-03-23T02:59:53;6.78;;;6.40;;
84866;SDS011;75123;51.788;4.654;2024-03-23T03:02:18;7.14;;;6.72;;
84866;SDS011;75123;51.788;4.654;2024-03-23T03:04:44;7.15;;;6.70;;
84866;SDS011;75123;51.788;4.654;2024-03-23T03:07:10;6.51;;;6.04;;
84866;SDS011;75123;51.788;4.654;2024-03-23T03:09:35;6.96;;;6.42;;
84866;SDS011;75123;51.788;4.654;2024-03-23T03:12:01;6.61;;;5.99;;
84866;SDS011;75123;51.788;4.654;2024-03-23T03:14:28;6.63;;;5.84;;
84866;SDS011;75123;51.788;4.654;2024-03-23T03:16:53;6.79;;;6.06;;
84866;SDS011;75123;51.788;4.654;2024-03-23T03:19:19;6.55;;;5.79;;
84866;SDS011;75123;51.788;4.654;2024-03-23T03:21:45;5.86;;;5.12;;
84866;SDS011;75123;51.788;4.654;2024-03-23T03:24:10;6.22;;;5.21;;
84866;SDS011;75123;51.788;4.654;2024-03-23T03:26:36;6.23;;;5.20;;
84866;SDS011;75123;51.788;4.654;2024-03-23T03:29:02;5.89;;;4.86;;
84866;SDS011;75123;51.788;4.654;2024-03-23T03:31:28;5.96;;;4.94;;
84866;SDS011;75123;51.788;4.654;2024-03-23T03:33:53;5.41;;;4.53;;
84866;SDS011;75123;51.788;4.654;2024-03-23T03:36:19;5.68;;;4.81;;
84866;SDS011;75123;51.788;4.654;2024-03-23T03:38:45;6.23;;;5.05;;
84866;SDS011;75123;51.788;4.654;2024-03-23T03:41:10;6.56;;;5.17;;
84866;SDS011;75123;51.788;4.654;2024-03-23T03:43:36;5.81;;;4.55;;
84866;SDS011;75123;51.788;4.654;2024-03-23T03:46:01;5.83;;;4.60;;
84866;SDS011;75123;51.788;4.654;2024-03-23T03:48:28;6.02;;;4.74;;
84866;SDS011;75123;51.788;4.654;2024-03-23T03:50:55;5.74;;;4.46;;
84866;SDS011;75123;51.788;4.654;2024-03-23T03:53:20;5.86;;;4.44;;
84866;SDS011;75123;51.788;4.654;2024-03-23T03:55:46;5.80;;;4.47;;
84866;SDS011;75123;51.788;4.654;2024-03-23T03:58:12;5.78;;;4.46;;
84866;SDS011;75123;51.788;4.654;2024-03-23T04:00:37;5.57;;;4.28;;
84866;SDS011;75123;51.788;4.654;2024-03-23T04:03:03;5.89;;;4.45;;
84866;SDS011;75123;51.788;4.654;2024-03-23T04:05:29;5.89;;;4.36;;
84866;SDS011;75123;51.788;4.654;2024-03-23T04:07:54;5.49;;;4.02;;
84866;SDS011;75123;51.788;4.654;2024-03-23T04:10:20;5.45;;;4.03;;
84866;SDS011;75123;51.788;4.654;2024-03-23T04:12:46;5.90;;;4.33;;
84866;SDS011;75123;51.788;4.654;2024-03-23T04:15:13;6.49;;;4.82;;
84866;SDS011;75123;51.788;4.654;2024-03-23T04:17:39;6.54;;;4.74;;
84866;SDS011;75123;51.788;4.654;2024-03-23T04:20:06;6.14;;;4.35;;
84866;SDS011;75123;51.788;4.654;2024-03-23T04:22:34;6.12;;;4.45;;
84866;SDS011;75123;51.788;4.654;2024-03-23T04:24:59;6.21;;;4.50;;
84866;SDS011;75123;51.788;4.654;2024-03-23T04:27:25;6.02;;;4.37;;
84866;SDS011;75123;51.788;4.654;2024-03-23T04:29:51;5.73;;;4.21;;
84866;SDS011;75123;51.788;4.654;2024-03-23T04:32:18;5.77;;;4.29;;
84866;SDS011;75123;51.788;4.654;2024-03-23T04:34:44;5.75;;;4.31;;
84866;SDS011;75123;51.788;4.654;2024-03-23T04:37:10;6.05;;;4.40;;
84866;SDS011;75123;51.788;4.654;2024-03-23T04:39:36;5.54;;;4.07;;
84866;SDS011;75123;51.788;4.654;2024-03-23T04:42:02;4.71;;;3.57;;
84866;SDS011;75123;51.788;4.654;2024-03-23T04:44:28;5.25;;;3.99;;
84866;SDS011;75123;51.788;4.654;2024-03-23T04:46:53;5.12;;;3.82;;
84866;SDS011;75123;51.788;4.654;2024-03-23T04:49:19;6.09;;;4.49;;
84866;SDS011;75123;51.788;4.654;2024-03-23T04:51:45;6.05;;;4.35;;
84866;SDS011;75123;51.788;4.654;2024-03-23T04:54:13;5.74;;;4.17;;
84866;SDS011;75123;51.788;4.654;2024-03-23T04:56:39;6.00;;;4.39;;
84866;SDS011;75123;51.788;4.654;2024-03-23T04:59:04;5.53;;;4.07;;
84866;SDS011;75123;51.788;4.654;2024-03-23T05:01:33;5.43;;;4.04;;
84866;SDS011;75123;51.788;4.654;2024-03-23T05:03:58;4.71;;;3.52;;
84866;SDS011;75123;51.788;4.654;2024-03-23T05:06:24;5.09;;;3.87;;
84866;SDS011;75123;51.788;4.654;2024-03-23T05:08:50;4.92;;;3.79;;
84866;SDS011;75123;51.788;4.654;2024-03-23T05:11:19;5.17;;;3.90;;
84866;SDS011;75123;51.788;4.654;2024-03-23T05:13:46;5.41;;;3.95;;
84866;SDS011;75123;51.788;4.654;2024-03-23T05:16:11;5.61;;;4.24;;
84866;SDS011;75123;51.788;4.654;2024-03-23T05:18:37;5.38;;;4.15;;
84866;SDS011;75123;51.788;4.654;2024-03-23T05:21:03;5.85;;;4.46;;
84866;SDS011;75123;51.788;4.654;2024-03-23T05:23:28;6.53;;;4.76;;
84866;SDS011;75123;51.788;4.654;2024-03-23T05:25:54;6.26;;;4.61;;
84866;SDS011;75123;51.788;4.654;2024-03-23T05:28:20;7.11;;;5.14;;
84866;SDS011;75123;51.788;4.654;2024-03-23T05:30:50;6.61;;;4.74;;
84866;SDS011;75123;51.788;4.654;2024-03-23T05:33:17;7.21;;;5.27;;
84866;SDS011;75123;51.788;4.654;2024-03-23T05:35:44;7.08;;;5.33;;
84866;SDS011;75123;51.788;4.654;2024-03-23T05:38:09;6.63;;;5.08;;
84866;SDS011;75123;51.788;4.654;2024-03-23T05:40:35;6.63;;;4.93;;
84866;SDS011;75123;51.788;4.654;2024-03-23T05:43:02;7.19;;;5.20;;
84866;SDS011;75123;51.788;4.654;2024-03-23T05:45:29;6.54;;;4.90;;
84866;SDS011;75123;51.788;4.654;2024-03-23T05:47:54;7.40;;;5.31;;
84866;SDS011;75123;51.788;4.654;2024-03-23T05:50:22;8.12;;;5.76;;
84866;SDS011;75123;51.788;4.654;2024-03-23T05:52:48;7.82;;;5.46;;
84866;SDS011;75123;51.788;4.654;2024-03-23T05:55:14;6.84;;;4.98;;
84866;SDS011;75123;51.788;4.654;2024-03-23T05:57:39;7.22;;;5.34;;
84866;SDS011;75123;51.788;4.654;2024-03-23T06:00:05;7.08;;;5.18;;
84866;SDS011;75123;51.788;4.654;2024-03-23T06:02:35;7.83;;;5.69;;
84866;SDS011;75123;51.788;4.654;2024-03-23T06:05:01;7.54;;;5.56;;
84866;SDS011;75123;51.788;4.654;2024-03-23T06:07:27;7.20;;;5.41;;
84866;SDS011;75123;51.788;4.654;2024-03-23T06:09:52;6.78;;;5.18;;
84866;SDS011;75123;51.788;4.654;2024-03-23T06:12:18;6.52;;;5.09;;
84866;SDS011;75123;51.788;4.654;2024-03-23T06:14:43;5.42;;;4.31;;
84866;SDS011;75123;51.788;4.654;2024-03-23T06:17:09;5.94;;;4.71;;
84866;SDS011;75123;51.788;4.654;2024-03-23T06:19:34;6.57;;;5.20;;
84866;SDS011;75123;51.788;4.654;2024-03-23T06:22:00;6.98;;;5.51;;
84866;SDS011;75123;51.788;4.654;2024-03-23T06:24:25;6.54;;;5.28;;
84866;SDS011;75123;51.788;4.654;2024-03-23T06:26:51;6.00;;;4.83;;
84866;SDS011;75123;51.788;4.654;2024-03-23T06:29:17;6.35;;;5.07;;
84866;SDS011;75123;51.788;4.654;2024-03-23T06:31:42;5.81;;;4.63;;
84866;SDS011;75123;51.788;4.654;2024-03-23T06:34:07;6.00;;;4.84;;
84866;SDS011;75123;51.788;4.654;2024-03-23T06:36:33;5.75;;;4.65;;
84866;SDS011;75123;51.788;4.654;2024-03-23T06:38:59;6.16;;;4.91;;
84866;SDS011;75123;51.788;4.654;2024-03-23T06:41:25;6.01;;;4.79;;
84866;SDS011;75123;51.788;4.654;2024-03-23T06:43:51;5.63;;;4.50;;
84866;SDS011;75123;51.788;4.654;2024-03-23T06:46:17;5.26;;;4.08;;
84866;SDS011;75123;51.788;4.654;2024-03-23T06:48:44;5.76;;;4.25;;
84866;SDS011;75123;51.788;4.654;2024-03-23T06:51:10;6.41;;;4.60;;
84866;SDS011;75123;51.788;4.654;2024-03-23T06:53:35;5.78;;;4.21;;
84866;SDS011;75123;51.788;4.654;2024-03-23T06:56:01;6.04;;;4.35;;
84866;SDS011;75123;51.788;4.654;2024-03-23T06:58:26;5.92;;;4.21;;
84866;SDS011;75123;51.788;4.654;2024-03-23T07:00:52;5.92;;;4.19;;
84866;SDS011;75123;51.788;4.654;2024-03-23T07:03:18;6.60;;;4.66;;
84866;SDS011;75123;51.788;4.654;2024-03-23T07:05:43;6.43;;;4.50;;
84866;SDS011;75123;51.788;4.654;2024-03-23T07:08:09;6.40;;;4.43;;
84866;SDS011;75123;51.788;4.654;2024-03-23T07:10:35;6.88;;;4.64;;
84866;SDS011;75123;51.788;4.654;2024-03-23T07:13:00;6.93;;;4.68;;
84866;SDS011;75123;51.788;4.654;2024-03-23T07:15:26;6.23;;;4.34;;
84866;SDS011;75123;51.788;4.654;2024-03-23T07:17:52;6.53;;;4.65;;
84866;SDS011;75123;51.788;4.654;2024-03-23T07:20:17;6.58;;;4.64;;
84866;SDS011;75123;51.788;4.654;2024-03-23T07:22:45;6.26;;;4.45;;
84866;SDS011;75123;51.788;4.654;2024-03-23T07:25:10;5.86;;;4.26;;
84866;SDS011;75123;51.788;4.654;2024-03-23T07:27:36;6.03;;;4.32;;
84866;SDS011;75123;51.788;4.654;2024-03-23T07:30:02;6.44;;;4.58;;
84866;SDS011;75123;51.788;4.654;2024-03-23T07:32:27;6.56;;;4.56;;
84866;SDS011;75123;51.788;4.654;2024-03-23T07:34:53;6.37;;;4.41;;
84866;SDS011;75123;51.788;4.654;2024-03-23T07:37:18;5.84;;;4.09;;
84866;SDS011;75123;51.788;4.654;2024-03-23T07:39:44;5.42;;;3.91;;
84866;SDS011;75123;51.788;4.654;2024-03-23T07:42:09;5.67;;;4.09;;
84866;SDS011;75123;51.788;4.654;2024-03-23T07:44:35;5.37;;;3.82;;
84866;SDS011;75123;51.788;4.654;2024-03-23T07:47:00;5.92;;;4.20;;
84866;SDS011;75123;51.788;4.654;2024-03-23T07:49:26;5.98;;;4.11;;
84866;SDS011;75123;51.788;4.654;2024-03-23T07:51:52;5.70;;;3.92;;
84866;SDS011;75123;51.788;4.654;2024-03-23T07:54:17;6.28;;;4.39;;
84866;SDS011;75123;51.788;4.654;2024-03-23T07:56:43;6.25;;;4.42;;
84866;SDS011;75123;51.788;4.654;2024-03-23T07:59:09;5.99;;;4.19;;
84866;SDS011;75123;51.788;4.654;2024-03-23T08:01:34;6.72;;;4.62;;
84866;SDS011;75123;51.788;4.654;2024-03-23T08:04:00;6.27;;;4.34;;
84866;SDS011;75123;51.788;4.654;2024-03-23T08:06:26;6.35;;;4.54;;
84866;SDS011;75123;51.788;4.654;2024-03-23T08:08:52;6.53;;;4.65;;
84866;SDS011;75123;51.788;4.654;2024-03-23T08:11:25;6.25;;;4.28;;
84866;SDS011;75123;51.788;4.654;2024-03-23T08:13:54;6.17;;;4.32;;
84866;SDS011;75123;51.788;4.654;2024-03-23T08:16:20;5.20;;;3.59;;
84866;SDS011;75123;51.788;4.654;2024-03-23T08:18:46;6.40;;;4.34;;
84866;SDS011;75123;51.788;4.654;2024-03-23T08:21:11;6.57;;;4.52;;
84866;SDS011;75123;51.788;4.654;2024-03-23T08:23:37;7.02;;;4.71;;
84866;SDS011;75123;51.788;4.654;2024-03-23T08:26:13;6.78;;;4.57;;
84866;SDS011;75123;51.788;4.654;2024-03-23T08:28:40;6.04;;;4.19;;
84866;SDS011;75123;51.788;4.654;2024-03-23T08:31:09;5.49;;;3.81;;
84866;SDS011;75123;51.788;4.654;2024-03-23T08:33:36;6.26;;;4.37;;
84866;SDS011;75123;51.788;4.654;2024-03-23T08:36:06;5.38;;;3.79;;
84866;SDS011;75123;51.788;4.654;2024-03-23T08:38:33;5.96;;;4.17;;
84866;SDS011;75123;51.788;4.654;2024-03-23T08:43:28;5.47;;;4.07;;
84866;SDS011;75123;51.788;4.654;2024-03-23T08:48:42;4.84;;;3.67;;
84866;SDS011;75123;51.788;4.654;2024-03-23T08:51:14;5.11;;;3.84;;
84866;SDS011;75123;51.788;4.654;2024-03-23T08:53:41;5.12;;;3.77;;
84866;SDS011;75123;51.788;4.654;2024-03-23T08:56:07;5.72;;;4.08;;
84866;SDS011;75123;51.788;4.654;2024-03-23T08:58:34;6.05;;;4.34;;
84866;SDS011;75123;51.788;4.654;2024-03-23T09:01:10;5.50;;;4.05;;
84866;SDS011;75123;51.788;4.654;2024-03-23T09:03:38;6.13;;;4.44;;
84866;SDS011;75123;51.788;4.654;2024-03-23T09:06:07;6.33;;;4.61;;
84866;SDS011;75123;51.788;4.654;2024-03-23T09:08:33;5.85;;;4.27;;
84866;SDS011;75123;51.788;4.654;2024-03-23T09:11:06;5.65;;;4.26;;
84866;SDS011;75123;51.788;4.654;2024-03-23T09:13:34;5.78;;;4.26;;
84866;SDS011;75123;51.788;4.654;2024-03-23T09:16:00;5.34;;;3.95;;
84866;SDS011;75123;51.788;4.654;2024-03-23T09:18:26;5.78;;;4.26;;
84866;SDS011;75123;51.788;4.654;2024-03-23T09:20:52;7.34;;;5.62;;
84866;SDS011;75123;51.788;4.654;2024-03-23T09:23:20;7.08;;;5.61;;
84866;SDS011;75123;51.788;4.654;2024-03-23T09:25:46;7.28;;;5.79;;
84866;SDS011;75123;51.788;4.654;2024-03-23T09:28:11;6.42;;;5.18;;
84866;SDS011;75123;51.788;4.654;2024-03-23T09:30:37;5.69;;;4.72;;
84866;SDS011;75123;51.788;4.654;2024-03-23T09:33:11;4.98;;;4.06;;
84866;SDS011;75123;51.788;4.654;2024-03-23T09:35:41;4.77;;;3.80;;
84866;SDS011;75123;51.788;4.654;2024-03-23T09:38:10;5.45;;;4.27;;
84866;SDS011;75123;51.788;4.654;2024-03-23T09:40:41;5.12;;;3.96;;
84866;SDS011;75123;51.788;4.654;2024-03-23T09:43:08;5.53;;;4.36;;
84866;SDS011;75123;51.788;4.654;2024-03-23T09:45:35;5.14;;;4.19;;
84866;SDS011;75123;51.788;4.654;2024-03-23T09:48:04;5.04;;;4.04;;
84866;SDS011;75123;51.788;4.654;2024-03-23T09:50:31;4.89;;;3.74;;
84866;SDS011;75123;51.788;4.654;2024-03-23T09:52:56;5.31;;;3.93;;
84866;SDS011;75123;51.788;4.654;2024-03-23T09:55:22;5.71;;;4.33;;
84866;SDS011;75123;51.788;4.654;2024-03-23T09:57:48;5.05;;;3.87;;
84866;SDS011;75123;51.788;4.654;2024-03-23T10:00:15;5.35;;;4.10;;
84866;SDS011;75123;51.788;4.654;2024-03-23T10:02:41;4.71;;;3.62;;
84866;SDS011;75123;51.788;4.654;2024-03-23T10:05:19;5.53;;;4.12;;
84866;SDS011;75123;51.788;4.654;2024-03-23T10:07:47;4.95;;;3.64;;
84866;SDS011;75123;51.788;4.654;2024-03-23T10:10:12;5.04;;;3.61;;
84866;SDS011;75123;51.788;4.654;2024-03-23T10:12:40;6.17;;;4.28;;
84866;SDS011;75123;51.788;4.654;2024-03-23T10:15:22;6.53;;;4.57;;
84866;SDS011;75123;51.788;4.654;2024-03-23T10:17:49;5.67;;;3.79;;
84866;SDS011;75123;51.788;4.654;2024-03-23T10:20:19;6.36;;;4.18;;
84866;SDS011;75123;51.788;4.654;2024-03-23T10:22:49;6.76;;;4.57;;
84866;SDS011;75123;51.788;4.654;2024-03-23T10:25:16;6.06;;;4.12;;
84866;SDS011;75123;51.788;4.654;2024-03-23T10:27:42;5.80;;;3.84;;
84866;SDS011;75123;51.788;4.654;2024-03-23T10:30:15;7.02;;;4.65;;
84866;SDS011;75123;51.788;4.654;2024-03-23T10:32:41;6.42;;;4.26;;
84866;SDS011;75123;51.788;4.654;2024-03-23T10:35:18;6.29;;;4.16;;
84866;SDS011;75123;51.788;4.654;2024-03-23T10:37:47;5.19;;;3.52;;
84866;SDS011;75123;51.788;4.654;2024-03-23T10:40:14;6.27;;;4.24;;
84866;SDS011;75123;51.788;4.654;2024-03-23T10:42:40;5.95;;;3.95;;
84866;SDS011;75123;51.788;4.654;2024-03-23T10:45:06;6.37;;;4.20;;
84866;SDS011;75123;51.788;4.654;2024-03-23T10:47:34;6.51;;;4.33;;
84866;SDS011;75123;51.788;4.654;2024-03-23T10:50:01;6.12;;;4.04;;
84866;SDS011;75123;51.788;4.654;2024-03-23T10:52:28;6.02;;;3.91;;
84866;SDS011;75123;51.788;4.654;2024-03-23T10:54:54;6.85;;;4.41;;
84866;SDS011;75123;51.788;4.654;2024-03-23T11:00:21;5.59;;;3.73;;
84866;SDS011;75123;51.788;4.654;2024-03-23T11:02:48;6.72;;;4.45;;
84866;SDS011;75123;51.788;4.654;2024-03-23T11:07:52;5.95;;;3.95;;
84866;SDS011;75123;51.788;4.654;2024-03-23T11:10:29;6.17;;;4.09;;
84866;SDS011;75123;51.788;4.654;2024-03-23T11:12:56;5.47;;;3.64;;
84866;SDS011;75123;51.788;4.654;2024-03-23T11:15:22;6.20;;;4.07;;
84866;SDS011;75123;51.788;4.654;2024-03-23T11:18:07;5.55;;;3.65;;
84866;SDS011;75123;51.788;4.654;2024-03-23T11:20:36;5.42;;;3.67;;
84866;SDS011;75123;51.788;4.654;2024-03-23T11:23:02;4.97;;;3.38;;
84866;SDS011;75123;51.788;4.654;2024-03-23T11:25:30;5.06;;;3.46;;
84866;SDS011;75123;51.788;4.654;2024-03-23T11:27:56;5.62;;;3.83;;
84866;SDS011;75123;51.788;4.654;2024-03-23T11:30:26;5.55;;;3.92;;
84866;SDS011;75123;51.788;4.654;2024-03-23T11:32:56;5.00;;;3.58;;
84866;SDS011;75123;51.788;4.654;2024-03-23T11:35:26;5.01;;;3.61;;
84866;SDS011;75123;51.788;4.654;2024-03-23T11:38:11;4.91;;;3.53;;
84866;SDS011;75123;51.788;4.654;2024-03-23T11:40:44;4.78;;;3.42;;
84866;SDS011;75123;51.788;4.654;2024-03-23T11:43:15;4.48;;;3.18;;
84866;SDS011;75123;51.788;4.654;2024-03-23T11:45:49;4.63;;;3.23;;
84866;SDS011;75123;51.788;4.654;2024-03-23T11:48:20;4.57;;;3.17;;
84866;SDS011;75123;51.788;4.654;2024-03-23T11:50:51;4.80;;;3.29;;
84866;SDS011;75123;51.788;4.654;2024-03-23T11:53:20;4.99;;;3.47;;
84866;SDS011;75123;51.788;4.654;2024-03-23T11:55:57;4.66;;;3.26;;
84866;SDS011;75123;51.788;4.654;2024-03-23T11:58:24;4.78;;;3.38;;
84866;SDS011;75123;51.788;4.654;2024-03-23T12:00:57;4.73;;;3.41;;
84866;SDS011;75123;51.788;4.654;2024-03-23T12:03:28;4.83;;;3.48;;
84866;SDS011;75123;51.788;4.654;2024-03-23T12:06:03;5.70;;;3.99;;
84866;SDS011;75123;51.788;4.654;2024-03-23T12:13:34;5.31;;;3.45;;
84866;SDS011;75123;51.788;4.654;2024-03-23T12:16:13;6.38;;;4.07;;
84866;SDS011;75123;51.788;4.654;2024-03-23T12:18:43;5.45;;;3.51;;
84866;SDS011;75123;51.788;4.654;2024-03-23T12:21:09;6.10;;;3.99;;
84866;SDS011;75123;51.788;4.654;2024-03-23T12:23:35;5.35;;;3.50;;
84866;SDS011;75123;51.788;4.654;2024-03-23T12:26:01;5.70;;;3.70;;
84866;SDS011;75123;51.788;4.654;2024-03-23T12:28:27;7.21;;;4.63;;
84866;SDS011;75123;51.788;4.654;2024-03-23T12:30:53;5.70;;;3.68;;
84866;SDS011;75123;51.788;4.654;2024-03-23T12:33:19;6.46;;;4.13;;
84866;SDS011;75123;51.788;4.654;2024-03-23T12:35:48;5.85;;;3.69;;
84866;SDS011;75123;51.788;4.654;2024-03-23T12:38:14;5.46;;;3.53;;
84866;SDS011;75123;51.788;4.654;2024-03-23T12:40:39;5.76;;;3.78;;
84866;SDS011;75123;51.788;4.654;2024-03-23T12:43:06;5.62;;;3.69;;
84866;SDS011;75123;51.788;4.654;2024-03-23T12:45:32;5.46;;;3.67;;
84866;SDS011;75123;51.788;4.654;2024-03-23T12:47:58;6.35;;;4.17;;
84866;SDS011;75123;51.788;4.654;2024-03-23T12:50:23;6.40;;;4.18;;
84866;SDS011;75123;51.788;4.654;2024-03-23T12:52:49;5.46;;;3.55;;
84866;SDS011;75123;51.788;4.654;2024-03-23T12:55:15;5.52;;;3.65;;
84866;SDS011;75123;51.788;4.654;2024-03-23T12:57:40;4.92;;;3.27;;
84866;SDS011;75123;51.788;4.654;2024-03-23T13:00:06;4.87;;;3.26;;
84866;SDS011;75123;51.788;4.654;2024-03-23T13:02:34;5.36;;;3.69;;
84866;SDS011;75123;51.788;4.654;2024-03-23T13:05:00;5.23;;;3.58;;
84866;SDS011;75123;51.788;4.654;2024-03-23T13:07:25;4.81;;;3.24;;
84866;SDS011;75123;51.788;4.654;2024-03-23T13:09:51;5.20;;;3.53;;
84866;SDS011;75123;51.788;4.654;2024-03-23T13:12:18;4.81;;;3.19;;
84866;SDS011;75123;51.788;4.654;2024-03-23T13:14:45;4.72;;;3.13;;
84866;SDS011;75123;51.788;4.654;2024-03-23T13:17:11;5.23;;;3.45;;
84866;SDS011;75123;51.788;4.654;2024-03-23T13:19:37;5.89;;;3.88;;
84866;SDS011;75123;51.788;4.654;2024-03-23T13:22:03;5.84;;;3.88;;
84866;SDS011;75123;51.788;4.654;2024-03-23T13:24:29;5.34;;;3.54;;
84866;SDS011;75123;51.788;4.654;2024-03-23T13:26:55;5.41;;;3.59;;
84866;SDS011;75123;51.788;4.654;2024-03-23T13:29:21;6.42;;;4.22;;
84866;SDS011;75123;51.788;4.654;2024-03-23T13:31:49;5.16;;;3.36;;
84866;SDS011;75123;51.788;4.654;2024-03-23T13:34:15;5.85;;;3.87;;
84866;SDS011;75123;51.788;4.654;2024-03-23T13:36:44;4.88;;;3.31;;
84866;SDS011;75123;51.788;4.654;2024-03-23T13:39:10;4.74;;;3.22;;
84866;SDS011;75123;51.788;4.654;2024-03-23T13:41:39;5.19;;;3.51;;
84866;SDS011;75123;51.788;4.654;2024-03-23T13:44:09;5.35;;;3.61;;
84866;SDS011;75123;51.788;4.654;2024-03-23T13:46:36;5.22;;;3.44;;
84866;SDS011;75123;51.788;4.654;2024-03-23T13:49:02;4.82;;;3.21;;
84866;SDS011;75123;51.788;4.654;2024-03-23T13:51:28;4.53;;;3.05;;
84866;SDS011;75123;51.788;4.654;2024-03-23T13:53:54;4.43;;;2.97;;
84866;SDS011;75123;51.788;4.654;2024-03-23T13:56:21;4.41;;;2.98;;
84866;SDS011;75123;51.788;4.654;2024-03-23T13:58:50;5.01;;;3.32;;
84866;SDS011;75123;51.788;4.654;2024-03-23T14:01:15;5.39;;;3.49;;
84866;SDS011;75123;51.788;4.654;2024-03-23T14:03:42;5.06;;;3.25;;
84866;SDS011;75123;51.788;4.654;2024-03-23T14:06:08;4.47;;;2.93;;
84866;SDS011;75123;51.788;4.654;2024-03-23T14:08:36;4.41;;;2.92;;
84866;SDS011;75123;51.788;4.654;2024-03-23T14:11:10;5.24;;;3.44;;
84866;SDS011;75123;51.788;4.654;2024-03-23T14:13:36;4.94;;;3.27;;
84866;SDS011;75123;51.788;4.654;2024-03-23T14:16:02;3.91;;;2.62;;
84866;SDS011;75123;51.788;4.654;2024-03-23T14:18:28;3.05;;;2.10;;
84866;SDS011;75123;51.788;4.654;2024-03-23T14:20:58;1.63;;;1.15;;
84866;SDS011;75123;51.788;4.654;2024-03-23T14:23:28;1.81;;;1.28;;
84866;SDS011;75123;51.788;4.654;2024-03-23T14:25:57;1.77;;;1.27;;
84866;SDS011;75123;51.788;4.654;2024-03-23T14:28:23;1.89;;;1.35;;
84866;SDS011;75123;51.788;4.654;2024-03-23T14:30:49;2.09;;;1.47;;
84866;SDS011;75123;51.788;4.654;2024-03-23T14:33:15;1.70;;;1.19;;
84866;SDS011;75123;51.788;4.654;2024-03-23T14:35:41;1.21;;;0.85;;
84866;SDS011;75123;51.788;4.654;2024-03-23T14:38:07;1.01;;;0.71;;
84866;SDS011;75123;51.788;4.654;2024-03-23T14:40:32;1.71;;;1.21;;
84866;SDS011;75123;51.788;4.654;2024-03-23T14:42:58;1.69;;;1.19;;
84866;SDS011;75123;51.788;4.654;2024-03-23T14:45:24;1.99;;;1.40;;
84866;SDS011;75123;51.788;4.654;2024-03-23T14:47:53;2.08;;;1.50;;
84866;SDS011;75123;51.788;4.654;2024-03-23T14:50:19;2.91;;;2.13;;
84866;SDS011;75123;51.788;4.654;2024-03-23T14:52:46;2.23;;;1.59;;
84866;SDS011;75123;51.788;4.654;2024-03-23T14:55:12;2.42;;;1.74;;
84866;SDS011;75123;51.788;4.654;2024-03-23T14:57:38;2.47;;;1.76;;
84866;SDS011;75123;51.788;4.654;2024-03-23T15:00:07;2.67;;;1.88;;
84866;SDS011;75123;51.788;4.654;2024-03-23T15:02:35;2.72;;;1.91;;
84866;SDS011;75123;51.788;4.654;2024-03-23T15:05:04;2.81;;;1.96;;
84866;SDS011;75123;51.788;4.654;2024-03-23T15:07:32;2.49;;;1.71;;
84866;SDS011;75123;51.788;4.654;2024-03-23T15:09:58;1.67;;;1.13;;
84866;SDS011;75123;51.788;4.654;2024-03-23T15:12:23;1.46;;;0.98;;
84866;SDS011;75123;51.788;4.654;2024-03-23T15:14:48;1.90;;;1.29;;
84866;SDS011;75123;51.788;4.654;2024-03-23T15:17:14;1.31;;;0.89;;
84866;SDS011;75123;51.788;4.654;2024-03-23T15:19:40;1.65;;;1.13;;
84866;SDS011;75123;51.788;4.654;2024-03-23T15:22:07;1.29;;;0.89;;
84866;SDS011;75123;51.788;4.654;2024-03-23T15:24:34;1.71;;;1.18;;
84866;SDS011;75123;51.788;4.654;2024-03-23T15:27:01;2.03;;;1.41;;
84866;SDS011;75123;51.788;4.654;2024-03-23T15:29:26;1.48;;;1.05;;
84866;SDS011;75123;51.788;4.654;2024-03-23T15:31:52;1.28;;;0.92;;
84866;SDS011;75123;51.788;4.654;2024-03-23T15:34:18;1.60;;;1.14;;
84866;SDS011;75123;51.788;4.654;2024-03-23T15:36:47;1.17;;;0.84;;
84866;SDS011;75123;51.788;4.654;2024-03-23T15:39:16;1.52;;;1.09;;
84866;SDS011;75123;51.788;4.654;2024-03-23T15:41:45;1.27;;;0.91;;
84866;SDS011;75123;51.788;4.654;2024-03-23T15:44:11;1.30;;;0.94;;
84866;SDS011;75123;51.788;4.654;2024-03-23T15:46:36;2.13;;;1.56;;
84866;SDS011;75123;51.788;4.654;2024-03-23T15:49:02;2.06;;;1.50;;
84866;SDS011;75123;51.788;4.654;2024-03-23T15:51:27;2.32;;;1.68;;
84866;SDS011;75123;51.788;4.654;2024-03-23T15:53:57;2.25;;;1.64;;